Time,TemperatureF,DewpointF,PressureIn,WindDirection,WindDirectionDegrees,WindSpeedMPH,WindSpeedGustMPH,Humidity,HourlyPrecipIn,Conditions,Clouds,dailyrainin,SoftwareType,DateUTC
2013-09-14 00:02:00,52.6,48.0,29.80,NNE,19,3.0,8.0,84,0.00,,,0.00,weatherlink.com 1.10,2013-09-14 04:02:00,
2013-09-14 00:17:00,52.3,48.0,29.80,NNE,26,2.0,7.0,85,0.00,,,0.00,weatherlink.com 1.10,2013-09-14 04:17:00,
2013-09-14 00:32:00,52.0,48.0,29.81,North,355,0.0,7.0,85,0.00,,,0.00,weatherlink.com 1.10,2013-09-14 04:32:00,
2013-09-14 00:47:00,51.6,47.0,29.81,East,85,1.0,7.0,85,0.00,,,0.00,weatherlink.com 1.10,2013-09-14 04:47:00,
2013-09-14 01:02:00,51.4,47.0,29.82,NNE,28,1.0,8.0,85,0.00,,,0.00,weatherlink.com 1.10,2013-09-14 05:02:00,
2013-09-14 01:17:00,51.3,47.0,29.82,NE,47,0.0,8.0,85,0.00,,,0.00,weatherlink.com 1.10,2013-09-14 05:17:00,
2013-09-14 01:32:00,50.9,47.0,29.82,NNE,26,1.0,5.0,85,0.00,,,0.00,weatherlink.com 1.10,2013-09-14 05:32:00,
2013-09-14 01:47:00,50.6,46.0,29.82,ENE,61,0.0,7.0,85,0.00,,,0.00,weatherlink.com 1.10,2013-09-14 05:47:00,
2013-09-14 02:02:00,50.4,46.0,29.82,NE,40,2.0,6.0,85,0.00,,,0.00,weatherlink.com 1.10,2013-09-14 06:02:00,
2013-09-14 02:17:00,50.1,46.0,29.82,NE,37,2.0,6.0,86,0.00,,,0.00,weatherlink.com 1.10,2013-09-14 06:17:00,
2013-09-14 02:32:00,49.9,46.0,29.82,NNE,26,0.0,4.0,86,0.00,,,0.00,weatherlink.com 1.10,2013-09-14 06:32:00,
2013-09-14 02:47:00,49.6,46.0,29.83,NNE,15,0.0,5.0,86,0.00,,,0.00,weatherlink.com 1.10,2013-09-14 06:47:00,
2013-09-14 03:02:00,49.3,46.0,29.83,NE,36,2.0,6.0,87,0.00,,,0.00,weatherlink.com 1.10,2013-09-14 07:02:00,
2013-09-14 03:17:00,49.2,46.0,29.83,NNE,27,3.0,5.0,87,0.00,,,0.00,weatherlink.com 1.10,2013-09-14 07:17:00,
2013-09-14 03:32:00,49.2,46.0,29.84,NE,47,1.0,4.0,88,0.00,,,0.00,weatherlink.com 1.10,2013-09-14 07:32:00,
2013-09-14 03:47:00,49.3,46.0,29.84,NE,48,1.0,2.0,88,0.00,,,0.00,weatherlink.com 1.10,2013-09-14 07:47:00,
2013-09-14 04:02:00,49.3,46.0,29.84,NE,48,0.0,4.0,88,0.00,,,0.00,weatherlink.com 1.10,2013-09-14 08:02:00,
2013-09-14 04:17:00,49.6,46.0,29.85,NE,48,0.0,2.0,88,0.00,,,0.00,weatherlink.com 1.10,2013-09-14 08:17:00,
2013-09-14 04:32:00,49.9,47.0,29.85,ENE,64,0.0,3.0,88,0.00,,,0.00,weatherlink.com 1.10,2013-09-14 08:32:00,
2013-09-14 04:47:00,49.9,47.0,29.85,ENE,64,0.0,2.0,89,0.00,,,0.00,weatherlink.com 1.10,2013-09-14 08:47:00,
2013-09-14 05:02:00,49.8,47.0,29.86,NNE,24,0.0,3.0,89,0.00,,,0.00,weatherlink.com 1.10,2013-09-14 09:02:00,
2013-09-14 05:17:00,49.5,46.0,29.86,NNE,26,0.0,3.0,89,0.00,,,0.00,weatherlink.com 1.10,2013-09-14 09:17:00,
2013-09-14 05:32:00,49.0,46.0,29.86,NNE,26,0.0,3.0,90,0.00,,,0.00,weatherlink.com 1.10,2013-09-14 09:32:00,
2013-09-14 05:47:00,48.6,46.0,29.87,NNE,26,1.0,3.0,91,0.00,,,0.00,weatherlink.com 1.10,2013-09-14 09:47:00,
2013-09-14 06:02:00,48.6,46.0,29.87,NE,40,0.0,4.0,91,0.00,,,0.00,weatherlink.com 1.10,2013-09-14 10:02:00,
2013-09-14 06:17:00,48.7,46.0,29.88,NE,38,1.0,4.0,91,0.00,,,0.00,weatherlink.com 1.10,2013-09-14 10:17:00,
2013-09-14 06:32:00,48.9,46.0,29.89,NE,39,0.0,2.0,91,0.00,,,0.00,weatherlink.com 1.10,2013-09-14 10:32:00,
2013-09-14 06:47:00,49.1,47.0,29.89,NE,34,4.0,4.0,91,0.00,,,0.00,weatherlink.com 1.10,2013-09-14 10:47:00,
2013-09-14 07:02:00,49.6,47.0,29.90,NE,36,4.0,4.0,91,0.00,,,0.00,weatherlink.com 1.10,2013-09-14 11:02:00,
2013-09-14 07:18:00,49.8,47.0,29.91,North,11,1.0,3.0,91,0.00,,,0.00,weatherlink.com 1.10,2013-09-14 11:18:00,
2013-09-14 07:33:00,50.1,47.0,29.91,NE,34,0.0,2.0,90,0.00,,,0.00,weatherlink.com 1.10,2013-09-14 11:33:00,
2013-09-14 07:48:00,50.5,48.0,29.91,NE,34,2.0,4.0,91,0.00,,,0.00,weatherlink.com 1.10,2013-09-14 11:48:00,
2013-09-14 08:03:00,50.9,48.0,29.91,NE,47,1.0,5.0,90,0.00,,,0.00,weatherlink.com 1.10,2013-09-14 12:03:00,
2013-09-14 08:18:00,51.4,48.0,29.92,NE,52,4.0,7.0,88,0.00,,,0.00,weatherlink.com 1.10,2013-09-14 12:18:00,
2013-09-14 08:33:00,51.9,49.0,29.93,NE,48,0.0,4.0,88,0.00,,,0.00,weatherlink.com 1.10,2013-09-14 12:33:00,
2013-09-14 08:48:00,52.3,48.0,29.93,NNE,17,2.0,5.0,86,0.00,,,0.00,weatherlink.com 1.10,2013-09-14 12:48:00,
2013-09-14 09:03:00,52.8,49.0,29.93,NNE,26,1.0,7.0,86,0.00,,,0.00,weatherlink.com 1.10,2013-09-14 13:03:00,
2013-09-14 09:18:00,54.0,49.0,29.93,NNE,25,4.0,8.0,84,0.00,,,0.00,weatherlink.com 1.10,2013-09-14 13:18:00,
2013-09-14 09:33:00,54.9,50.0,29.93,NE,45,3.0,10.0,83,0.00,,,0.00,weatherlink.com 1.10,2013-09-14 13:33:00,
2013-09-14 09:48:00,54.9,49.0,29.94,NNE,32,2.0,8.0,80,0.00,,,0.00,weatherlink.com 1.10,2013-09-14 13:48:00,
2013-09-14 10:03:00,56.8,50.0,29.94,NNE,12,4.0,8.0,78,0.00,,,0.00,weatherlink.com 1.10,2013-09-14 14:03:00,
2013-09-14 10:18:00,55.9,48.0,29.94,NE,35,5.0,10.0,76,0.00,,,0.00,weatherlink.com 1.10,2013-09-14 14:18:00,
2013-09-14 10:33:00,57.7,51.0,29.94,NNE,24,2.0,11.0,77,0.00,,,0.00,weatherlink.com 1.10,2013-09-14 14:33:00,
2013-09-14 10:48:00,57.2,49.0,29.94,NNE,32,3.0,13.0,75,0.00,,,0.00,weatherlink.com 1.10,2013-09-14 14:48:00,
2013-09-14 11:03:00,57.8,50.0,29.94,NE,35,5.0,14.0,76,0.00,,,0.00,weatherlink.com 1.10,2013-09-14 15:03:00,
2013-09-14 11:18:00,58.7,50.0,29.95,NNW,346,7.0,11.0,72,0.00,,,0.00,weatherlink.com 1.10,2013-09-14 15:18:00,
2013-09-14 11:33:00,58.7,50.0,29.95,East,89,5.0,9.0,73,0.00,,,0.00,weatherlink.com 1.10,2013-09-14 15:33:00,
2013-09-14 11:48:00,60.5,51.0,29.95,North,11,6.0,13.0,72,0.00,,,0.00,weatherlink.com 1.10,2013-09-14 15:48:00,
2013-09-14 12:03:00,61.4,51.0,29.95,NE,49,8.0,11.0,68,0.00,,,0.00,weatherlink.com 1.10,2013-09-14 16:03:00,
2013-09-14 12:18:00,61.6,51.0,29.95,NNE,31,5.0,12.0,69,0.00,,,0.00,weatherlink.com 1.10,2013-09-14 16:18:00,
2013-09-14 12:33:00,61.7,50.0,29.95,NNE,22,2.0,10.0,66,0.00,,,0.00,weatherlink.com 1.10,2013-09-14 16:33:00,
2013-09-14 12:49:00,62.1,53.0,29.95,NNW,328,6.0,12.0,71,0.00,,,0.00,weatherlink.com 1.10,2013-09-14 16:49:00,
2013-09-14 13:04:00,62.7,50.0,29.94,NE,51,3.0,12.0,64,0.00,,,0.00,weatherlink.com 1.10,2013-09-14 17:04:00,
2013-09-14 13:19:00,61.7,50.0,29.94,NNE,15,4.0,9.0,66,0.00,,,0.00,weatherlink.com 1.10,2013-09-14 17:19:00,
2013-09-14 13:34:00,62.3,51.0,29.94,WNW,288,1.0,6.0,66,0.00,,,0.00,weatherlink.com 1.10,2013-09-14 17:34:00,
2013-09-14 13:49:00,61.5,51.0,29.94,NNE,21,0.0,10.0,69,0.00,,,0.00,weatherlink.com 1.10,2013-09-14 17:49:00,
2013-09-14 14:04:00,62.8,52.0,29.94,NE,35,4.0,7.0,69,0.00,,,0.00,weatherlink.com 1.10,2013-09-14 18:04:00,
2013-09-14 14:19:00,62.2,51.0,29.94,North,355,5.0,9.0,67,0.00,,,0.00,weatherlink.com 1.10,2013-09-14 18:19:00,
2013-09-14 14:34:00,61.8,52.0,29.94,NE,36,3.0,8.0,70,0.00,,,0.00,weatherlink.com 1.10,2013-09-14 18:34:00,
2013-09-14 14:49:00,61.9,51.0,29.94,North,355,5.0,7.0,68,0.00,,,0.00,weatherlink.com 1.10,2013-09-14 18:49:00,
2013-09-14 15:04:00,61.5,51.0,29.95,NE,45,4.0,8.0,69,0.00,,,0.00,weatherlink.com 1.10,2013-09-14 19:04:00,
2013-09-14 15:19:00,61.4,51.0,29.95,North,355,5.0,8.0,69,0.00,,,0.00,weatherlink.com 1.10,2013-09-14 19:19:00,
2013-09-14 15:34:00,62.2,53.0,29.95,NE,44,5.0,8.0,72,0.00,,,0.00,weatherlink.com 1.10,2013-09-14 19:34:00,
2013-09-14 15:49:00,62.2,51.0,29.95,ENE,72,4.0,7.0,66,0.00,,,0.00,weatherlink.com 1.10,2013-09-14 19:49:00,
2013-09-14 16:04:00,61.7,52.0,29.95,NE,44,4.0,6.0,71,0.00,,,0.00,weatherlink.com 1.10,2013-09-14 20:04:00,
2013-09-14 16:19:00,62.0,51.0,29.95,NE,51,3.0,7.0,68,0.00,,,0.00,weatherlink.com 1.10,2013-09-14 20:19:00,
2013-09-14 16:34:00,61.6,51.0,29.96,NNE,24,4.0,8.0,69,0.00,,,0.00,weatherlink.com 1.10,2013-09-14 20:34:00,
2013-09-14 16:49:00,60.9,52.0,29.96,NE,54,0.0,4.0,73,0.00,,,0.00,weatherlink.com 1.10,2013-09-14 20:49:00,
2013-09-14 17:04:00,60.5,52.0,29.96,NE,54,3.0,5.0,73,0.00,,,0.00,weatherlink.com 1.10,2013-09-14 21:04:00,
2013-09-14 17:19:00,60.4,52.0,29.97,NE,53,2.0,5.0,74,0.00,,,0.00,weatherlink.com 1.10,2013-09-14 21:19:00,
2013-09-14 17:34:00,59.9,51.0,29.98,NE,49,2.0,6.0,72,0.00,,,0.00,weatherlink.com 1.10,2013-09-14 21:34:00,
2013-09-14 17:49:00,59.3,51.0,29.99,ENE,59,1.0,7.0,75,0.00,,,0.00,weatherlink.com 1.10,2013-09-14 21:49:00,
2013-09-14 18:04:00,58.8,51.0,29.99,NE,45,2.0,5.0,76,0.00,,,0.00,weatherlink.com 1.10,2013-09-14 22:04:00,
2013-09-14 18:19:00,58.5,52.0,29.99,NE,44,0.0,3.0,78,0.00,,,0.00,weatherlink.com 1.10,2013-09-14 22:19:00,
2013-09-14 18:34:00,58.3,51.0,29.99,NE,44,0.0,2.0,78,0.00,,,0.00,weatherlink.com 1.10,2013-09-14 22:34:00,
2013-09-14 18:49:00,57.9,52.0,30.00,NE,44,0.0,2.0,81,0.00,,,0.00,weatherlink.com 1.10,2013-09-14 22:49:00,
2013-09-14 19:04:00,57.4,51.0,30.00,NE,44,1.0,4.0,80,0.00,,,0.00,weatherlink.com 1.10,2013-09-14 23:04:00,
2013-09-14 19:19:00,57.0,51.0,30.01,NE,44,2.0,4.0,80,0.00,,,0.00,weatherlink.com 1.10,2013-09-14 23:19:00,
2013-09-14 19:34:00,56.6,50.0,30.01,ENE,59,4.0,5.0,79,0.00,,,0.00,weatherlink.com 1.10,2013-09-14 23:34:00,
2013-09-14 19:49:00,56.4,50.0,30.02,NE,42,1.0,3.0,79,0.00,,,0.00,weatherlink.com 1.10,2013-09-14 23:49:00,
2013-09-14 20:04:00,55.9,49.0,30.03,ENE,59,3.0,5.0,78,0.00,,,0.00,weatherlink.com 1.10,2013-09-15 00:04:00,
2013-09-14 20:19:00,55.5,49.0,30.04,NE,52,2.0,3.0,78,0.00,,,0.00,weatherlink.com 1.10,2013-09-15 00:19:00,
2013-09-14 20:34:00,54.7,48.0,30.04,NE,52,3.0,4.0,77,0.00,,,0.00,weatherlink.com 1.10,2013-09-15 00:34:00,
2013-09-14 20:49:00,54.3,48.0,30.05,NE,39,2.0,4.0,78,0.00,,,0.00,weatherlink.com 1.10,2013-09-15 00:49:00,
2013-09-14 21:04:00,53.7,47.0,30.05,NE,40,0.0,2.0,79,0.00,,,0.00,weatherlink.com 1.10,2013-09-15 01:04:00,
2013-09-14 21:19:00,52.8,47.0,30.06,NE,40,0.0,1.0,80,0.00,,,0.00,weatherlink.com 1.10,2013-09-15 01:19:00,
2013-09-14 21:34:00,52.2,47.0,30.06,NE,40,0.0,4.0,82,0.00,,,0.00,weatherlink.com 1.10,2013-09-15 01:34:00,
2013-09-14 21:49:00,51.7,47.0,30.06,NE,40,0.0,2.0,83,0.00,,,0.00,weatherlink.com 1.10,2013-09-15 01:49:00,
2013-09-14 22:04:00,50.9,47.0,30.06,NE,40,3.0,3.0,85,0.00,,,0.00,weatherlink.com 1.10,2013-09-15 02:04:00,
2013-09-14 22:19:00,50.2,46.0,30.06,NE,40,3.0,3.0,86,0.00,,,0.00,weatherlink.com 1.10,2013-09-15 02:19:00,
2013-09-14 22:34:00,49.6,46.0,30.06,NE,40,0.0,3.0,87,0.00,,,0.00,weatherlink.com 1.10,2013-09-15 02:34:00,
2013-09-14 22:49:00,49.2,46.0,30.07,NE,40,1.0,2.0,87,0.00,,,0.00,weatherlink.com 1.10,2013-09-15 02:49:00,
2013-09-14 23:04:00,48.4,45.0,30.07,NE,40,2.0,3.0,89,0.00,,,0.00,weatherlink.com 1.10,2013-09-15 03:04:00,
2013-09-14 23:19:00,47.9,45.0,30.08,NE,40,1.0,3.0,90,0.00,,,0.00,weatherlink.com 1.10,2013-09-15 03:19:00,
2013-09-14 23:35:00,47.7,45.0,30.08,NE,40,2.0,3.0,90,0.00,,,0.00,weatherlink.com 1.10,2013-09-15 03:35:00,
2013-09-14 23:50:00,47.6,45.0,30.08,NE,40,0.0,3.0,91,0.00,,,0.00,weatherlink.com 1.10,2013-09-15 03:50:00,